Time,TemperatureF,DewpointF,PressureIn,WindDirection,WindDirectionDegrees,WindSpeedMPH,WindSpeedGustMPH,Humidity,HourlyPrecipIn,Conditions,Clouds,dailyrainin,SoftwareType,DateUTC
2013-03-10 00:01:00,48.0,39.0,30.08,NE,55,1.0,4.0,72,0.00,,,-99.99,,2013-03-10 08:01:00,
2013-03-10 00:11:00,48.0,38.0,30.09,NE,44,0.0,3.0,68,0.00,,,-99.99,,2013-03-10 08:11:00,
2013-03-10 00:21:00,48.0,38.0,30.09,NE,44,0.0,3.0,68,0.00,,,-99.99,,2013-03-10 08:21:00,
2013-03-10 00:31:00,48.0,38.0,30.09,NE,44,0.0,3.0,68,0.00,,,-99.99,,2013-03-10 08:31:00,
2013-03-10 00:42:00,47.0,38.0,30.09,NE,44,0.0,0.0,72,0.00,,,-99.99,,2013-03-10 08:42:00,
2013-03-10 00:51:00,47.0,38.0,30.09,NE,44,0.0,0.0,72,0.00,,,-99.99,,2013-03-10 08:51:00,
2013-03-10 01:01:00,47.0,38.0,30.09,NE,44,0.0,0.0,72,0.00,,,-99.99,,2013-03-10 09:01:00,
2013-03-10 01:11:00,46.0,37.0,30.09,ENE,69,1.0,4.0,71,0.00,,,-99.99,,2013-03-10 09:11:00,
2013-03-10 01:21:00,46.0,37.0,30.09,ENE,69,1.0,4.0,71,0.00,,,-99.99,,2013-03-10 09:21:00,
2013-03-10 01:31:00,46.0,37.0,30.09,ENE,69,1.0,4.0,71,0.00,,,-99.99,,2013-03-10 09:31:00,
2013-03-10 01:41:00,46.0,36.0,30.09,NNE,17,1.0,5.0,69,0.00,,,-99.99,,2013-03-10 09:41:00,
2013-03-10 01:51:00,46.0,36.0,30.09,NNE,17,1.0,5.0,69,0.00,,,-99.99,,2013-03-10 09:51:00,
2013-03-10 03:01:00,46.0,36.0,30.09,NNE,17,1.0,5.0,69,0.00,,,-99.99,,2013-03-10 10:01:00,
2013-03-10 03:11:00,46.0,36.0,30.09,NNE,17,1.0,5.0,69,0.00,,,-99.99,,2013-03-10 10:11:00,
2013-03-10 03:21:00,45.0,37.0,30.09,NNE,17,1.0,4.0,72,0.00,,,-99.99,,2013-03-10 10:21:00,
2013-03-10 03:32:00,45.0,37.0,30.09,NNE,17,1.0,4.0,72,0.00,,,-99.99,,2013-03-10 10:32:00,
2013-03-10 03:42:00,45.0,36.0,30.08,NE,54,1.0,3.0,71,0.00,,,-99.99,,2013-03-10 10:42:00,
2013-03-10 03:52:00,45.0,36.0,30.08,NE,54,1.0,3.0,71,0.00,,,-99.99,,2013-03-10 10:52:00,
2013-03-10 04:01:00,45.0,36.0,30.08,NE,54,1.0,3.0,71,0.00,,,-99.99,,2013-03-10 11:01:00,
2013-03-10 04:11:00,47.0,36.0,30.07,NE,40,1.0,5.0,65,0.00,,,-99.99,,2013-03-10 11:11:00,
2013-03-10 04:21:00,47.0,36.0,30.07,NE,40,1.0,5.0,65,0.00,,,-99.99,,2013-03-10 11:21:00,
2013-03-10 04:31:00,47.0,36.0,30.07,NE,40,1.0,5.0,65,0.00,,,-99.99,,2013-03-10 11:31:00,
2013-03-10 04:42:00,47.0,36.0,30.07,NE,40,1.0,5.0,65,0.00,,,-99.99,,2013-03-10 11:42:00,
2013-03-10 04:52:00,46.0,35.0,30.08,SSW,211,0.0,2.0,65,0.00,,,-99.99,,2013-03-10 11:52:00,
2013-03-10 05:00:00,44.0,34.0,30.09,SSW,211,0.0,0.0,69,0.00,,,-99.99,,2013-03-10 12:00:00,
2013-03-10 05:01:00,46.0,35.0,30.08,SSW,211,0.0,2.0,65,0.00,,,-99.99,,2013-03-10 12:01:00,
2013-03-10 05:11:00,46.0,35.0,30.08,SSW,211,0.0,2.0,65,0.00,,,-99.99,,2013-03-10 12:11:00,
2013-03-10 05:21:00,44.0,34.0,30.09,SSW,211,0.0,0.0,69,0.00,,,-99.99,,2013-03-10 12:21:00,
2013-03-10 05:31:00,44.0,34.0,30.09,SSW,211,0.0,0.0,69,0.00,,,-99.99,,2013-03-10 12:31:00,
2013-03-10 05:42:00,44.0,34.0,30.09,SSW,211,0.0,0.0,69,0.00,,,-99.99,,2013-03-10 12:42:00,
2013-03-10 05:51:00,44.0,34.0,30.09,SSW,211,0.0,0.0,69,0.00,,,-99.99,,2013-03-10 12:51:00,
2013-03-10 06:00:00,43.0,36.0,30.10,NW,313,2.0,5.0,75,0.00,,,-99.99,,2013-03-10 13:00:00,
2013-03-10 06:21:00,43.0,36.0,30.10,NW,313,2.0,5.0,75,0.00,,,-99.99,,2013-03-10 13:21:00,
2013-03-10 06:32:00,43.0,36.0,30.10,NW,313,2.0,5.0,75,0.00,,,-99.99,,2013-03-10 13:32:00,
2013-03-10 06:42:00,43.0,36.0,30.10,NW,313,2.0,5.0,75,0.00,,,-99.99,,2013-03-10 13:42:00,
2013-03-10 06:52:00,43.0,36.0,30.10,NW,313,2.0,5.0,75,0.00,,,-99.99,,2013-03-10 13:52:00,
2013-03-10 07:00:00,43.0,36.0,30.11,NNW,348,0.0,0.0,75,0.00,,,-99.99,,2013-03-10 14:00:00,
2013-03-10 07:22:00,43.0,36.0,30.11,NNW,348,0.0,0.0,75,0.00,,,-99.99,,2013-03-10 14:22:00,
2013-03-10 07:32:00,43.0,36.0,30.11,NNW,348,0.0,0.0,75,0.00,,,-99.99,,2013-03-10 14:32:00,
2013-03-10 07:42:00,43.0,36.0,30.11,NNW,348,0.0,0.0,75,0.00,,,-99.99,,2013-03-10 14:42:00,
2013-03-10 07:51:00,43.0,36.0,30.11,NNW,348,0.0,0.0,75,0.00,,,-99.99,,2013-03-10 14:51:00,
2013-03-10 08:00:00,43.0,35.0,30.12,NNW,347,0.0,0.0,73,0.00,,,-99.99,,2013-03-10 15:00:00,
2013-03-10 08:21:00,43.0,35.0,30.12,NNW,347,0.0,0.0,73,0.00,,,-99.99,,2013-03-10 15:21:00,
2013-03-10 08:32:00,43.0,35.0,30.12,NNW,347,0.0,0.0,73,0.00,,,-99.99,,2013-03-10 15:32:00,
2013-03-10 08:42:00,43.0,35.0,30.12,NNW,347,0.0,0.0,73,0.00,,,-99.99,,2013-03-10 15:42:00,
2013-03-10 08:52:00,43.0,35.0,30.12,NNW,347,0.0,0.0,73,0.00,,,-99.99,,2013-03-10 15:52:00,
2013-03-10 10:41:00,66.0,25.0,30.14,ENE,70,2.0,8.0,21,0.00,,,-99.99,,2013-03-10 17:41:00,
2013-03-10 11:52:00,72.0,17.0,30.13,NE,34,7.0,14.0,12,0.00,,,-99.99,,2013-03-10 18:52:00,
2013-03-10 12:21:00,74.0,16.0,30.12,NE,55,4.0,10.0,11,0.00,,,-99.99,,2013-03-10 19:21:00,
2013-03-10 13:22:00,74.0,35.0,30.10,West,263,5.0,10.0,24,0.00,,,-99.99,,2013-03-10 20:22:00,
2013-03-10 13:32:00,74.0,35.0,30.10,West,263,5.0,10.0,24,0.00,,,-99.99,,2013-03-10 20:32:00,
2013-03-10 13:43:00,74.0,35.0,30.10,West,263,5.0,10.0,24,0.00,,,-99.99,,2013-03-10 20:43:00,
2013-03-10 13:52:00,72.0,34.0,30.09,WNW,287,6.0,13.0,25,0.00,,,-99.99,,2013-03-10 20:52:00,
2013-03-10 14:01:00,72.0,34.0,30.09,WNW,287,6.0,13.0,25,0.00,,,-99.99,,2013-03-10 21:01:00,
2013-03-10 14:12:00,72.0,34.0,30.09,WNW,287,6.0,13.0,25,0.00,,,-99.99,,2013-03-10 21:12:00,
2013-03-10 14:22:00,72.0,34.0,30.08,WNW,294,6.0,13.0,25,0.00,,,-99.99,,2013-03-10 21:22:00,
2013-03-10 14:31:00,72.0,34.0,30.08,WNW,294,6.0,13.0,25,0.00,,,-99.99,,2013-03-10 21:31:00,
2013-03-10 14:42:00,72.0,34.0,30.08,WNW,294,6.0,13.0,25,0.00,,,-99.99,,2013-03-10 21:42:00,
2013-03-10 14:52:00,72.0,35.0,30.07,SSE,147,4.0,12.0,26,0.00,,,-99.99,,2013-03-10 21:52:00,
2013-03-10 15:01:00,72.0,35.0,30.07,SSE,147,4.0,12.0,26,0.00,,,-99.99,,2013-03-10 22:01:00,
2013-03-10 15:12:00,72.0,35.0,30.07,SSE,147,4.0,12.0,26,0.00,,,-99.99,,2013-03-10 22:12:00,
2013-03-10 15:21:00,72.0,36.0,30.06,SSW,196,2.0,11.0,27,0.00,,,-99.99,,2013-03-10 22:21:00,
2013-03-10 15:30:00,72.0,37.0,30.06,South,182,1.0,6.0,28,0.00,,,-99.99,,2013-03-10 22:30:00,
2013-03-10 15:31:00,72.0,36.0,30.06,SSW,196,2.0,11.0,27,0.00,,,-99.99,,2013-03-10 22:31:00,
2013-03-10 15:43:00,72.0,36.0,30.06,SSW,196,2.0,11.0,27,0.00,,,-99.99,,2013-03-10 22:43:00,
2013-03-10 15:52:00,72.0,37.0,30.06,South,182,1.0,6.0,28,0.00,,,-99.99,,2013-03-10 22:52:00,
2013-03-10 16:02:00,72.0,37.0,30.06,South,182,1.0,6.0,28,0.00,,,-99.99,,2013-03-10 23:02:00,
2013-03-10 16:12:00,72.0,37.0,30.06,South,182,1.0,6.0,28,0.00,,,-99.99,,2013-03-10 23:12:00,
2013-03-10 16:22:00,72.0,37.0,30.06,South,182,1.0,6.0,28,0.00,,,-99.99,,2013-03-10 23:22:00,
2013-03-10 16:52:00,69.0,42.0,30.06,SW,227,1.0,5.0,38,0.00,,,-99.99,,2013-03-10 23:52:00,
2013-03-10 17:02:00,69.0,42.0,30.06,SW,227,1.0,5.0,38,0.00,,,-99.99,,2013-03-11 00:02:00,
2013-03-10 17:12:00,69.0,42.0,30.06,SW,227,1.0,5.0,38,0.00,,,-99.99,,2013-03-11 00:12:00,
2013-03-10 17:22:00,66.0,43.0,30.05,SSW,210,1.0,4.0,43,0.00,,,-99.99,,2013-03-11 00:22:00,
2013-03-10 17:32:00,66.0,43.0,30.05,SSW,210,1.0,4.0,43,0.00,,,-99.99,,2013-03-11 00:32:00,
2013-03-10 17:43:00,66.0,43.0,30.05,SSW,210,1.0,4.0,43,0.00,,,-99.99,,2013-03-11 00:43:00,
2013-03-10 17:52:00,64.0,42.0,30.05,WSW,246,1.0,3.0,44,0.00,,,-99.99,,2013-03-11 00:52:00,
2013-03-10 18:02:00,64.0,42.0,30.05,WSW,246,1.0,3.0,44,0.00,,,-99.99,,2013-03-11 01:02:00,
2013-03-10 18:12:00,64.0,42.0,30.05,WSW,246,1.0,3.0,44,0.00,,,-99.99,,2013-03-11 01:12:00,
2013-03-10 18:22:00,63.0,42.0,30.06,SSW,212,0.0,3.0,46,0.00,,,-99.99,,2013-03-11 01:22:00,
2013-03-10 18:31:00,63.0,42.0,30.06,SSW,212,0.0,3.0,46,0.00,,,-99.99,,2013-03-11 01:31:00,
2013-03-10 18:43:00,63.0,42.0,30.06,SSW,212,0.0,3.0,46,0.00,,,-99.99,,2013-03-11 01:43:00,
2013-03-10 18:53:00,61.0,43.0,30.06,SW,217,0.0,3.0,52,0.00,,,-99.99,,2013-03-11 01:53:00,
2013-03-10 19:01:00,61.0,43.0,30.06,SW,217,0.0,3.0,52,0.00,,,-99.99,,2013-03-11 02:01:00,
2013-03-10 19:12:00,61.0,43.0,30.06,SW,217,0.0,3.0,52,0.00,,,-99.99,,2013-03-11 02:12:00,
2013-03-10 19:21:00,59.0,43.0,30.06,SW,217,0.0,0.0,55,0.00,,,-99.99,,2013-03-11 02:21:00,
2013-03-10 19:32:00,59.0,43.0,30.06,SW,217,0.0,0.0,55,0.00,,,-99.99,,2013-03-11 02:32:00,
2013-03-10 19:42:00,59.0,43.0,30.06,SW,217,0.0,0.0,55,0.00,,,-99.99,,2013-03-11 02:42:00,
2013-03-10 19:52:00,58.0,42.0,30.06,SW,217,0.0,0.0,56,0.00,,,-99.99,,2013-03-11 02:52:00,
2013-03-10 20:01:00,58.0,42.0,30.06,SW,217,0.0,0.0,56,0.00,,,-99.99,,2013-03-11 03:01:00,
2013-03-10 20:12:00,58.0,42.0,30.06,SW,217,0.0,0.0,56,0.00,,,-99.99,,2013-03-11 03:12:00,
2013-03-10 20:21:00,57.0,41.0,30.06,SW,217,0.0,0.0,55,0.00,,,-99.99,,2013-03-11 03:21:00,
2013-03-10 20:31:00,57.0,41.0,30.06,SW,217,0.0,0.0,55,0.00,,,-99.99,,2013-03-11 03:31:00,
2013-03-10 20:42:00,57.0,41.0,30.06,SW,217,0.0,0.0,55,0.00,,,-99.99,,2013-03-11 03:42:00,
2013-03-10 20:52:00,57.0,42.0,30.06,ESE,107,0.0,2.0,57,0.00,,,-99.99,,2013-03-11 03:52:00,
2013-03-10 21:01:00,57.0,42.0,30.06,ESE,107,0.0,2.0,57,0.00,,,-99.99,,2013-03-11 04:01:00,
2013-03-10 21:12:00,57.0,42.0,30.06,ESE,107,0.0,2.0,57,0.00,,,-99.99,,2013-03-11 04:12:00,
2013-03-10 21:22:00,55.0,41.0,30.06,East,101,0.0,0.0,58,0.00,,,-99.99,,2013-03-11 04:22:00,
2013-03-10 21:32:00,55.0,41.0,30.06,East,101,0.0,0.0,58,0.00,,,-99.99,,2013-03-11 04:32:00,
2013-03-10 21:43:00,55.0,41.0,30.06,East,101,0.0,0.0,58,0.00,,,-99.99,,2013-03-11 04:43:00,
2013-03-10 21:53:00,53.0,42.0,30.06,East,101,0.0,1.0,65,0.00,,,-99.99,,2013-03-11 04:53:00,
2013-03-10 22:00:00,53.0,44.0,30.06,East,101,0.0,0.0,72,0.00,,,-99.99,,2013-03-11 05:00:00,
2013-03-10 22:01:00,53.0,42.0,30.06,East,101,0.0,1.0,65,0.00,,,-99.99,,2013-03-11 05:01:00,
2013-03-10 22:11:00,53.0,42.0,30.06,East,101,0.0,1.0,65,0.00,,,-99.99,,2013-03-11 05:11:00,
2013-03-10 22:21:00,53.0,44.0,30.06,East,101,0.0,0.0,72,0.00,,,-99.99,,2013-03-11 05:21:00,
2013-03-10 22:31:00,53.0,44.0,30.06,East,101,0.0,0.0,72,0.00,,,-99.99,,2013-03-11 05:31:00,
2013-03-10 22:43:00,53.0,44.0,30.06,East,101,0.0,0.0,72,0.00,,,-99.99,,2013-03-11 05:43:00,
2013-03-10 22:52:00,53.0,44.0,30.06,East,101,0.0,0.0,72,0.00,,,-99.99,,2013-03-11 05:52:00,
2013-03-10 23:53:00,48.0,39.0,30.06,ENE,72,1.0,4.0,72,0.00,,,-99.99,,2013-03-11 06:53:00,